CST,Max TemperatureF,Mean TemperatureF,Min TemperatureF,Max Dew PointF,MeanDew PointF,Min DewpointF,Max Humidity, Mean Humidity, Min Humidity, Max Sea Level PressureIn, Mean Sea Level PressureIn, Min Sea Level PressureIn, Max VisibilityMiles, Mean VisibilityMiles, Min VisibilityMiles, Max Wind SpeedMPH, Mean Wind SpeedMPH, Max Gust SpeedMPH,PrecipitationIn, CloudCover, Events, WindDirDegrees
2013-1-1,21,16,10,16,14,8,93,87,78,30.38,30.27,30.17,10,4,1,14,8,,0.01,5,Snow,334
2013-1-2,34,20,5,29,18,0,92,84,75,30.36,30.23,30.13,10,8,2,15,11,,0.01,4,Snow,280
2013-1-3,30,20,10,21,16,7,88,80,69,30.52,30.43,30.35,10,10,10,14,8,,0.00,4,,270
2013-1-4,28,17,6,20,12,1,89,79,63,30.40,30.31,30.20,10,10,10,16,11,,0.00,0,,213
2013-1-5,36,31,21,28,23,16,88,76,61,30.35,30.19,30.11,10,10,10,16,11,28,0.00,2,,254
2013-1-6,37,24,10,26,18,7,88,76,61,30.44,30.33,30.14,10,10,10,23,9,,0.00,0,,220
2013-1-7,41,36,30,30,26,23,85,71,64,30.12,30.03,29.95,10,10,10,26,19,33,0.00,0,,205
2013-1-8,42,34,26,32,27,23,89,77,65,30.24,30.00,29.82,10,10,10,20,11,,0.00,0,,237
2013-1-9,48,36,23,34,27,20,92,77,48,30.48,30.37,30.27,10,10,9,10,6,21,0.00,0,,183
2013-1-10,41,37,33,41,36,31,100,96,82,30.27,29.90,29.66,10,2,0,29,6,50,0.31,8,Fog-Rain,137
2013-1-11,59,42,26,41,33,19,100,75,33,29.91,29.58,29.38,10,9,1,38,19,53,0.00,4,,217
2013-1-12,24,18,12,15,10,7,81,65,48,30.24,30.12,29.94,10,10,10,20,11,26,0.00,1,,342
2013-1-13,26,17,8,8,6,3,80,66,43,30.41,30.33,30.22,10,10,10,15,10,22,0.00,0,,332
2013-1-14,28,18,8,14,10,4,87,68,43,30.52,30.43,30.37,10,10,10,8,4,,0.00,1,,187
2013-1-15,34,26,17,19,16,12,92,73,50,30.37,30.28,30.17,10,10,8,10,6,,0.00,4,Snow,211
2013-1-16,55,37,19,28,23,14,86,64,32,30.31,30.14,30.04,10,10,10,17,11,,0.00,1,,294
2013-1-17,53,39,25,27,24,21,86,64,34,30.52,30.42,30.33,10,10,10,12,9,,0.00,0,,265
2013-1-18,57,44,30,28,27,23,79,59,32,30.33,30.13,29.99,10,10,10,24,14,28,0.00,0,,212
2013-1-19,62,45,28,26,22,19,78,50,20,30.28,30.12,29.99,10,10,10,16,11,,0.00,0,,315
2013-1-20,41,30,19,25,19,14,92,72,50,30.48,30.33,30.26,10,10,10,17,8,24,0.00,1,,54
2013-1-21,39,26,14,18,14,11,88,70,43,30.45,30.37,30.26,10,10,10,15,8,18,0.00,0,,193
2013-1-22,36,23,10,16,13,8,88,69,44,30.33,30.27,30.22,10,10,9,14,8,,0.00,0,,91
2013-1-23,48,33,18,26,20,14,89,68,39,30.40,30.26,30.18,10,10,8,18,8,24,0.00,0,,38
2013-1-24,26,19,12,17,10,7,81,66,49,30.46,30.32,30.18,10,10,10,14,9,,0.00,5,,110
2013-1-25,48,32,17,25,21,14,88,62,39,30.30,30.24,30.18,10,10,8,8,5,,0.00,0,,226
2013-1-26,55,42,30,41,31,22,93,66,29,30.19,30.07,29.88,10,9,4,24,13,30,0.03,3,Rain,171
2013-1-27,62,48,33,48,40,32,96,82,49,29.88,29.75,29.66,10,6,3,28,16,37,0.00,3,,189
2013-1-28,75,52,28,41,34,27,100,82,20,29.81,29.71,29.55,10,4,0,29,7,43,0.00,2,Fog,162
2013-1-29,37,34,30,36,31,28,96,88,73,29.77,29.66,29.58,10,6,0,26,15,34,0.09,8,Fog-Snow,352
2013-1-30,30,23,16,29,19,12,96,79,63,30.01,29.91,29.76,10,7,1,31,20,38,0.01,5,Snow,316
2013-1-31,25,18,10,20,13,5,84,75,63,30.47,30.24,29.97,10,10,9,14,9,,0.00,4,,25